createdAt,value
2022-11-19T00:01:18.504Z,91.70
2022-11-19T00:03:49.881Z,91.60
2022-11-19T00:06:22.135Z,91.70
2022-11-19T00:08:49.339Z,91.80
2022-11-19T00:11:43.855Z,91.60
2022-11-19T00:14:12.683Z,92.00
2022-11-19T00:16:40.011Z,91.70
2022-11-19T00:19:07.035Z,91.90
2022-11-19T00:21:33.827Z,92.10
2022-11-19T00:24:00.630Z,92.00
2022-11-19T00:26:27.541Z,92.00
2022-11-19T00:28:54.807Z,92.10
2022-11-19T00:31:21.583Z,92.10
2022-11-19T00:33:50.638Z,92.10
2022-11-19T00:36:17.802Z,92.10
2022-11-19T00:38:44.614Z,92.40
2022-11-19T00:41:11.673Z,92.40
2022-11-19T00:43:47.965Z,92.40
2022-11-19T00:46:14.979Z,92.40
2022-11-19T00:48:42.078Z,92.30
2022-11-19T00:51:09.335Z,92.20
2022-11-19T00:53:36.175Z,92.20
2022-11-19T00:56:03.886Z,92.10
2022-11-19T00:58:30.903Z,92.00
2022-11-19T01:00:57.782Z,91.70
2022-11-19T01:03:24.667Z,91.90
2022-11-19T01:05:51.439Z,92.00
2022-11-19T01:08:18.313Z,92.00
2022-11-19T01:10:45.585Z,91.80
2022-11-19T01:13:31.070Z,91.50
2022-11-19T01:15:57.938Z,91.40
2022-11-19T01:18:24.921Z,91.50
2022-11-19T01:20:51.769Z,91.60
2022-11-19T01:23:18.514Z,91.30
2022-11-19T01:25:45.358Z,91.50
2022-11-19T01:28:12.330Z,91.50
2022-11-19T01:30:39.919Z,91.30
2022-11-19T01:33:06.917Z,91.60
2022-11-19T01:35:36.427Z,91.20
2022-11-19T01:38:04.041Z,91.30
2022-11-19T01:40:31.546Z,90.80
2022-11-19T01:42:58.487Z,91.00
2022-11-19T01:45:30.466Z,90.90
2022-11-19T01:47:59.187Z,90.90
2022-11-19T01:50:26.837Z,91.00
2022-11-19T01:52:54.103Z,90.80
2022-11-19T01:55:21.078Z,91.20
2022-11-19T01:57:52.834Z,91.10
2022-11-19T02:00:19.804Z,91.20
2022-11-19T02:02:46.595Z,91.10
2022-11-19T02:05:13.412Z,91.20
2022-11-19T02:07:42.536Z,91.40
2022-11-19T02:10:09.852Z,91.50
2022-11-19T02:12:39.607Z,91.60
2022-11-19T02:18:14.051Z,91.70
2022-11-19T02:20:44.337Z,91.70
2022-11-19T02:23:14.240Z,91.80
2022-11-19T02:25:47.072Z,91.60
2022-11-19T02:28:26.014Z,91.70
2022-11-19T02:30:54.213Z,91.90
2022-11-19T02:33:25.658Z,91.90
2022-11-19T02:35:59.055Z,92.00
2022-11-19T02:38:32.394Z,92.10
2022-11-19T02:41:02.458Z,92.20
2022-11-19T02:43:29.191Z,92.20
2022-11-19T02:46:05.190Z,92.10
2022-11-19T02:48:34.860Z,92.00
2022-11-19T02:51:02.879Z,92.10
2022-11-19T02:53:30.187Z,91.90
2022-11-19T02:56:12.300Z,91.90
2022-11-19T02:59:01.331Z,91.80
2022-11-19T03:01:48.479Z,91.70
2022-11-19T03:04:30.838Z,91.60
2022-11-19T03:07:00.154Z,91.60
2022-11-19T03:09:27.727Z,91.60
2022-11-19T03:12:00.795Z,91.70
2022-11-19T03:14:51.816Z,91.70
2022-11-19T03:17:27.449Z,91.80
2022-11-19T03:19:57.401Z,91.80
2022-11-19T03:22:26.902Z,91.90
2022-11-19T03:25:00.487Z,91.90
2022-11-19T03:27:38.852Z,91.90
2022-11-19T03:30:06.007Z,91.90
2022-11-19T03:32:38.073Z,92.00
2022-11-19T03:35:08.806Z,92.00
2022-11-19T03:37:38.706Z,91.90
2022-11-19T03:40:06.470Z,91.70
2022-11-19T03:42:34.126Z,91.60
2022-11-19T03:45:08.899Z,91.50
2022-11-19T03:47:36.875Z,91.20
2022-11-19T03:50:23.506Z,90.90
2022-11-19T03:52:50.397Z,91.10
2022-11-19T03:55:17.289Z,91.10
2022-11-19T03:57:44.292Z,91.20
2022-11-19T04:00:11.589Z,91.20
2022-11-19T04:02:41.964Z,91.20
2022-11-19T04:05:09.352Z,91.40
2022-11-19T04:07:36.268Z,91.70
2022-11-19T04:10:03.166Z,91.90
2022-11-19T04:12:29.933Z,91.90
2022-11-19T04:14:56.728Z,91.80
2022-11-19T04:17:23.481Z,91.90
2022-11-19T04:19:50.190Z,91.90
2022-11-19T04:22:16.985Z,92.00
2022-11-19T04:24:43.729Z,91.90
2022-11-19T04:27:10.642Z,91.70
2022-11-19T04:29:37.410Z,91.40
2022-11-19T04:32:04.270Z,91.70
2022-11-19T04:34:31.046Z,91.50
2022-11-19T04:36:57.889Z,91.70
2022-11-19T04:39:24.668Z,91.30
2022-11-19T04:41:51.485Z,91.10
2022-11-19T04:44:18.348Z,91.20
2022-11-19T04:46:45.079Z,91.10
2022-11-19T04:49:11.950Z,90.90
2022-11-19T04:51:38.727Z,91.20
2022-11-19T04:54:05.603Z,91.40
2022-11-19T04:56:32.341Z,91.40
2022-11-19T04:58:59.179Z,91.60
2022-11-19T05:01:26.281Z,91.60
2022-11-19T05:03:53.113Z,91.70
2022-11-19T05:06:19.974Z,91.30
2022-11-19T05:08:46.743Z,91.50
2022-11-19T05:11:13.520Z,91.60
2022-11-19T05:13:40.322Z,91.60
2022-11-19T05:16:07.185Z,91.50
2022-11-19T05:18:33.933Z,91.50
2022-11-19T05:21:00.912Z,91.40
2022-11-19T05:23:27.674Z,91.40
2022-11-19T05:25:54.448Z,91.30
2022-11-19T05:28:32.787Z,91.40
2022-11-19T05:31:05.245Z,91.40
2022-11-19T05:33:34.235Z,91.40
2022-11-19T05:36:02.066Z,91.50
2022-11-19T05:38:28.923Z,91.50
2022-11-19T05:40:55.848Z,91.60
2022-11-19T05:43:22.610Z,91.50
2022-11-19T05:45:49.468Z,91.50
2022-11-19T05:48:16.193Z,91.40
2022-11-19T05:50:43.039Z,91.40
2022-11-19T05:53:09.951Z,91.40
2022-11-19T05:55:36.708Z,91.50
2022-11-19T05:58:03.573Z,91.60
2022-11-19T06:00:30.347Z,91.60
2022-11-19T06:02:57.377Z,91.20
2022-11-19T06:05:24.134Z,91.30
2022-11-19T06:07:50.897Z,91.20
2022-11-19T06:10:17.756Z,91.20
2022-11-19T06:12:45.938Z,91.10
2022-11-19T06:15:13.694Z,90.80
2022-11-19T06:17:40.523Z,90.90
2022-11-19T06:20:08.850Z,90.80
2022-11-19T06:22:36.342Z,90.90
2022-11-19T06:25:07.730Z,91.00
2022-11-19T06:27:34.989Z,91.00
2022-11-19T06:30:01.905Z,90.90
2022-11-19T06:32:28.968Z,90.90
2022-11-19T06:34:55.718Z,91.10
2022-11-19T06:37:22.542Z,90.70
2022-11-19T06:39:49.295Z,90.60
2022-11-19T06:42:35.037Z,90.60
2022-11-19T06:45:02.428Z,90.40
2022-11-19T06:47:32.840Z,90.30
2022-11-19T06:49:59.788Z,90.30
2022-11-19T06:52:26.548Z,90.20
2022-11-19T06:54:53.423Z,90.00
2022-11-19T06:57:20.273Z,89.40
2022-11-19T06:59:47.553Z,89.40
2022-11-19T07:02:17.836Z,89.50
2022-11-19T07:04:47.189Z,90.00
2022-11-19T07:07:14.038Z,90.00
2022-11-19T07:09:40.796Z,90.10
2022-11-19T07:12:08.214Z,90.30
2022-11-19T07:14:35.812Z,90.30
2022-11-19T07:17:03.081Z,90.20
2022-11-19T07:19:30.290Z,90.40
2022-11-19T07:21:57.157Z,90.50
2022-11-19T07:24:23.967Z,90.50
2022-11-19T07:26:50.697Z,90.70
2022-11-19T07:29:17.983Z,90.80
2022-11-19T07:31:46.982Z,90.80
2022-11-19T07:34:13.857Z,90.60
2022-11-19T07:36:40.631Z,90.50
2022-11-19T07:39:07.549Z,90.50
2022-11-19T07:41:53.090Z,90.40
2022-11-19T07:44:20.042Z,90.60
2022-11-19T07:46:47.274Z,90.40
2022-11-19T07:49:14.391Z,90.10
2022-11-19T07:51:41.246Z,89.50
2022-11-19T07:54:09.398Z,90.00
2022-11-19T07:56:36.314Z,89.70
2022-11-19T07:59:03.054Z,89.20
2022-11-19T08:01:30.256Z,89.10
2022-11-19T08:04:00.191Z,88.90
2022-11-19T08:06:27.816Z,88.50
2022-11-19T08:08:55.935Z,88.90
2022-11-19T08:11:23.216Z,89.30
2022-11-19T08:13:50.206Z,89.50
2022-11-19T08:16:35.878Z,89.10
2022-11-19T08:19:03.783Z,89.40
2022-11-19T08:21:30.827Z,89.70
2022-11-19T08:23:57.852Z,90.10
2022-11-19T08:26:24.695Z,90.50
2022-11-19T08:28:51.647Z,90.40
2022-11-19T08:31:18.466Z,90.40
2022-11-19T08:33:45.306Z,90.20
2022-11-19T08:36:12.169Z,90.20
2022-11-19T08:38:39.183Z,90.30
2022-11-19T08:41:24.808Z,90.30
2022-11-19T08:43:51.614Z,90.40
2022-11-19T08:46:18.558Z,90.30
2022-11-19T08:48:45.601Z,90.40
2022-11-19T08:51:17.953Z,90.60
2022-11-19T08:53:45.495Z,90.80
2022-11-19T08:56:16.844Z,90.90
2022-11-19T08:58:45.312Z,90.80
2022-11-19T09:01:13.151Z,91.00
2022-11-19T09:03:40.043Z,91.30
2022-11-19T09:06:07.175Z,91.20
2022-11-19T09:08:34.414Z,91.10
2022-11-19T09:11:06.011Z,91.10
2022-11-19T09:13:32.944Z,91.20
2022-11-19T09:15:59.789Z,91.10
2022-11-19T09:18:26.730Z,91.20
2022-11-19T09:20:54.938Z,91.20
2022-11-19T09:23:22.279Z,91.20
2022-11-19T09:25:56.218Z,91.60
2022-11-19T09:28:22.961Z,92.00
2022-11-19T09:31:05.688Z,91.60
2022-11-19T09:33:34.087Z,91.60
2022-11-19T09:36:00.966Z,91.20
2022-11-19T09:38:28.396Z,91.00
2022-11-19T09:40:55.898Z,90.60
2022-11-19T09:43:34.834Z,90.70
2022-11-19T09:46:09.451Z,90.50
2022-11-19T09:48:37.569Z,90.40
2022-11-19T09:51:33.158Z,90.40
2022-11-19T09:54:03.406Z,90.80
2022-11-19T09:56:35.969Z,91.10
2022-11-19T09:59:21.505Z,91.30
2022-11-19T10:01:48.306Z,91.30
2022-11-19T10:04:18.278Z,91.30
2022-11-19T10:06:48.390Z,91.20
2022-11-19T10:09:34.044Z,91.20
2022-11-19T10:12:20.042Z,91.30
2022-11-19T10:14:46.890Z,91.40
2022-11-19T10:17:26.138Z,91.20
2022-11-19T10:19:59.135Z,91.50
2022-11-19T10:22:36.017Z,91.30
2022-11-19T10:25:05.497Z,91.40
2022-11-19T10:27:37.766Z,91.50
2022-11-19T10:30:12.341Z,91.50
2022-11-19T10:32:41.087Z,91.50
2022-11-19T10:35:09.143Z,91.00
2022-11-19T10:37:39.460Z,91.30
2022-11-19T10:40:08.561Z,91.40
2022-11-19T10:42:39.623Z,91.50
2022-11-19T10:45:13.514Z,91.60
2022-11-19T10:47:47.695Z,91.70
2022-11-19T10:50:22.200Z,91.60
2022-11-19T10:52:54.111Z,91.60
2022-11-19T10:55:29.379Z,90.80
2022-11-19T10:58:06.468Z,90.80
2022-11-19T11:00:33.640Z,91.30
2022-11-19T11:03:04.374Z,90.90
2022-11-19T11:05:31.612Z,90.90
2022-11-19T11:07:59.246Z,91.30
2022-11-19T11:10:27.447Z,91.00
2022-11-19T11:13:14.459Z,90.90
2022-11-19T11:15:45.994Z,90.70
2022-11-19T11:18:15.170Z,90.60
2022-11-19T11:20:51.814Z,90.50
2022-11-19T11:23:21.190Z,90.60
2022-11-19T11:29:12.671Z,90.80
2022-11-19T11:31:44.432Z,90.80
2022-11-19T11:34:30.649Z,90.40
2022-11-19T11:36:58.722Z,90.50
2022-11-19T11:39:28.357Z,90.10
2022-11-19T11:42:06.016Z,90.00
2022-11-19T11:44:35.624Z,89.70
2022-11-19T11:47:13.846Z,89.10
2022-11-19T11:49:42.797Z,88.90
2022-11-19T11:52:09.842Z,89.30
2022-11-19T11:54:37.799Z,89.60
2022-11-19T11:57:24.694Z,89.20
2022-11-19T11:59:52.104Z,89.60
2022-11-19T12:02:27.145Z,90.00
2022-11-19T12:04:55.696Z,90.20
2022-11-19T12:07:41.659Z,90.20
2022-11-19T12:10:32.199Z,90.20
2022-11-19T12:13:14.659Z,90.10
2022-11-19T12:15:50.941Z,90.00
2022-11-19T12:18:17.912Z,90.00
2022-11-19T12:20:57.344Z,90.10
2022-11-19T12:23:41.021Z,90.20
2022-11-19T12:26:19.647Z,90.30
2022-11-19T12:28:56.046Z,90.40
2022-11-19T12:31:27.286Z,90.70
2022-11-19T12:34:18.235Z,90.30
2022-11-19T12:37:07.745Z,90.30
2022-11-19T12:39:55.995Z,90.20
2022-11-19T12:42:42.082Z,90.30
2022-11-19T12:45:15.627Z,90.40
2022-11-19T12:48:15.039Z,90.40
2022-11-19T12:50:53.121Z,90.20
2022-11-19T12:53:38.952Z,90.00
2022-11-19T12:56:05.813Z,90.20
2022-11-19T12:58:38.988Z,91.10
2022-11-19T13:01:09.744Z,91.30
2022-11-19T13:03:45.795Z,91.30
2022-11-19T13:06:18.304Z,91.20
2022-11-19T13:08:54.418Z,91.10
2022-11-19T13:11:28.579Z,91.00
2022-11-19T13:13:59.626Z,90.60
2022-11-19T13:16:27.682Z,90.30
2022-11-19T13:19:05.929Z,90.10
2022-11-19T13:21:35.773Z,89.70
2022-11-19T13:24:09.369Z,89.60
2022-11-19T13:26:37.052Z,88.00
2022-11-19T13:29:23.759Z,88.10
2022-11-19T13:31:53.368Z,88.60
2022-11-19T13:34:22.815Z,88.40
2022-11-19T13:37:02.859Z,88.60
2022-11-19T13:39:38.488Z,88.40
2022-11-19T13:42:25.586Z,88.50
2022-11-19T13:44:52.552Z,88.40
2022-11-19T13:47:22.632Z,88.70
2022-11-19T13:49:54.733Z,88.60
2022-11-19T13:52:27.876Z,88.80
2022-11-19T13:54:56.534Z,88.90
2022-11-19T13:57:34.066Z,89.00
2022-11-19T14:00:08.624Z,89.00
2022-11-19T14:02:44.398Z,89.30
2022-11-19T14:05:11.241Z,89.60
2022-11-19T14:07:45.960Z,89.70
2022-11-19T14:10:12.860Z,89.80
2022-11-19T14:12:46.624Z,90.00
2022-11-19T14:16:07.729Z,89.90
2022-11-19T14:19:01.278Z,89.60
2022-11-19T14:21:46.856Z,89.90
2022-11-19T14:24:44.688Z,90.00
2022-11-19T14:27:30.675Z,90.10
2022-11-19T14:30:18.934Z,90.20
2022-11-19T14:32:50.545Z,90.20
2022-11-19T14:35:27.058Z,90.40
2022-11-19T14:37:55.521Z,90.50
2022-11-19T14:40:24.880Z,90.50
2022-11-19T14:43:19.911Z,90.50
2022-11-19T14:46:07.218Z,90.60
2022-11-19T14:48:35.999Z,90.50
2022-11-19T14:51:10.779Z,90.50
2022-11-19T14:56:30.134Z,90.60
2022-11-19T14:59:19.089Z,90.30
2022-11-19T15:02:06.241Z,90.10
2022-11-19T15:04:38.610Z,89.70
2022-11-19T15:07:10.829Z,89.90
2022-11-19T15:09:54.612Z,90.00
2022-11-19T15:12:21.896Z,90.10
2022-11-19T15:15:21.058Z,90.10
2022-11-19T15:18:01.891Z,89.60
2022-11-19T15:21:05.535Z,90.20
2022-11-19T15:23:47.635Z,89.40
2022-11-19T15:26:21.597Z,88.60
2022-11-19T15:29:07.710Z,88.20
2022-11-19T15:31:53.866Z,88.10
2022-11-19T15:34:56.297Z,87.60
2022-11-19T15:37:41.849Z,87.40
2022-11-19T15:40:13.939Z,86.90
2022-11-19T15:42:48.119Z,86.60
2022-11-19T15:45:17.176Z,87.00
2022-11-19T15:47:47.265Z,87.50
2022-11-19T15:50:18.926Z,87.90
2022-11-19T15:53:02.329Z,87.90
2022-11-19T15:55:30.998Z,87.50
2022-11-19T15:58:03.249Z,87.60
2022-11-19T16:00:31.166Z,87.50
2022-11-19T16:02:58.442Z,87.70
2022-11-19T16:05:33.002Z,87.60
2022-11-19T16:08:06.863Z,87.30
2022-11-19T16:10:34.530Z,87.30
2022-11-19T16:13:21.025Z,86.90
2022-11-19T16:16:11.279Z,87.00
2022-11-19T16:18:45.807Z,87.10
2022-11-19T16:21:19.282Z,87.90
2022-11-19T16:24:04.929Z,86.90
2022-11-19T16:26:36.281Z,86.90
2022-11-19T16:29:04.311Z,86.80
2022-11-19T16:31:31.634Z,86.70
2022-11-19T16:33:59.311Z,86.70
2022-11-19T16:36:30.902Z,86.70
2022-11-19T16:38:58.740Z,86.60
2022-11-19T16:41:44.427Z,86.40
2022-11-19T16:44:14.129Z,86.30
2022-11-19T16:46:41.038Z,86.50
2022-11-19T16:49:31.379Z,86.30
2022-11-19T16:51:58.664Z,86.30
2022-11-19T16:54:47.568Z,86.20
2022-11-19T16:57:24.116Z,85.90
2022-11-19T16:59:52.925Z,85.90
2022-11-19T17:02:21.367Z,85.70
2022-11-19T17:04:49.635Z,85.70
2022-11-19T17:07:27.620Z,85.50
2022-11-19T17:10:24.103Z,85.10
2022-11-19T17:12:51.360Z,85.10
2022-11-19T17:15:36.935Z,84.40
2022-11-19T17:18:10.019Z,84.40
2022-11-19T17:20:36.865Z,84.30
2022-11-19T17:23:09.629Z,84.70
2022-11-19T17:25:44.717Z,83.90
2022-11-19T17:28:16.338Z,84.10
2022-11-19T17:30:44.238Z,84.30
2022-11-19T17:33:13.669Z,84.20
2022-11-19T17:35:41.588Z,84.30
2022-11-19T17:38:27.683Z,84.20
2022-11-19T17:41:08.101Z,84.20
2022-11-19T17:43:54.148Z,84.30
2022-11-19T17:46:21.872Z,84.30
2022-11-19T17:48:49.267Z,83.60
2022-11-19T17:51:19.315Z,85.00
2022-11-19T17:53:46.253Z,84.10
2022-11-19T17:56:16.357Z,84.10
2022-11-19T17:58:43.165Z,84.00
2022-11-19T18:01:10.475Z,83.70
2022-11-19T18:03:39.312Z,83.90
2022-11-19T18:06:08.480Z,83.90
2022-11-19T18:08:37.086Z,84.00
2022-11-19T18:11:04.882Z,84.20
2022-11-19T18:13:33.336Z,84.20
2022-11-19T18:16:00.173Z,84.30
2022-11-19T18:18:26.917Z,84.90
2022-11-19T18:20:58.953Z,85.50
2022-11-19T18:23:28.563Z,85.40
2022-11-19T18:25:55.298Z,85.80
2022-11-19T18:28:22.113Z,85.00
2022-11-19T18:30:48.931Z,86.10
2022-11-19T18:33:15.667Z,89.90
2022-11-19T18:35:42.435Z,90.00
2022-11-19T18:38:09.233Z,88.30
2022-11-19T18:40:35.999Z,87.10
2022-11-19T18:43:21.618Z,86.30
2022-11-19T18:45:48.424Z,86.20
2022-11-19T18:48:15.198Z,86.50
2022-11-19T18:50:41.988Z,87.60
2022-11-19T18:53:10.478Z,87.60
2022-11-19T18:55:37.349Z,87.50
2022-11-19T18:58:05.849Z,87.60
2022-11-19T19:00:32.669Z,87.70
2022-11-19T19:03:00.842Z,87.90
2022-11-19T19:05:27.786Z,88.00
2022-11-19T19:07:54.644Z,88.50
2022-11-19T19:10:21.458Z,88.60
2022-11-19T19:12:48.213Z,88.30
2022-11-19T19:15:15.433Z,88.50
2022-11-19T19:17:42.230Z,88.60
2022-11-19T19:20:09.435Z,88.90
2022-11-19T19:22:36.126Z,88.50
2022-11-19T19:25:05.182Z,88.40
2022-11-19T19:27:32.409Z,88.40
2022-11-19T19:30:03.529Z,88.70
2022-11-19T19:32:30.502Z,88.40
2022-11-19T19:34:59.905Z,88.60
2022-11-19T19:37:27.056Z,88.60
2022-11-19T19:39:53.868Z,88.50
2022-11-19T19:42:20.779Z,89.00
2022-11-19T19:44:47.650Z,89.00
2022-11-19T19:47:14.593Z,89.00
2022-11-19T19:49:42.612Z,89.00
2022-11-19T19:52:13.013Z,89.10
2022-11-19T19:54:41.138Z,89.30
2022-11-19T19:57:09.109Z,89.30
2022-11-19T19:59:36.026Z,88.80
2022-11-19T20:02:06.553Z,88.60
2022-11-19T20:04:33.629Z,88.40
2022-11-19T20:07:03.424Z,88.20
2022-11-19T20:09:41.175Z,87.90
2022-11-19T20:12:09.745Z,87.40
2022-11-19T20:14:36.626Z,87.50
2022-11-19T20:17:03.964Z,87.40
2022-11-19T20:19:31.021Z,87.30
2022-11-19T20:22:00.405Z,87.20
2022-11-19T20:24:27.686Z,87.10
2022-11-19T20:26:58.330Z,87.20
2022-11-19T20:29:28.446Z,87.70
2022-11-19T20:31:55.383Z,88.00
2022-11-19T20:34:22.231Z,87.90
2022-11-19T20:36:49.744Z,87.50
2022-11-19T20:39:38.893Z,87.50
2022-11-19T20:42:24.807Z,87.50
2022-11-19T20:44:52.067Z,86.50
2022-11-19T20:47:28.571Z,86.00
2022-11-19T20:49:55.915Z,86.30
2022-11-19T20:52:25.323Z,86.20
2022-11-19T20:54:53.270Z,86.20
2022-11-19T20:57:20.381Z,86.70
2022-11-19T20:59:54.689Z,86.80
2022-11-19T21:02:22.051Z,86.70
2022-11-19T21:04:49.151Z,86.70
2022-11-19T21:07:16.340Z,86.60
2022-11-19T21:09:49.574Z,87.00
2022-11-19T21:12:19.006Z,86.70
2022-11-19T21:14:46.656Z,87.20
2022-11-19T21:17:13.567Z,85.60
2022-11-19T21:19:40.607Z,86.00
2022-11-19T21:22:07.410Z,85.80
2022-11-19T21:24:34.302Z,85.90
2022-11-19T21:27:01.257Z,86.10
2022-11-19T21:29:28.054Z,85.70
2022-11-19T21:31:55.691Z,86.00
2022-11-19T21:34:22.648Z,86.60
2022-11-19T21:36:50.785Z,86.80
2022-11-19T21:39:18.537Z,86.40
2022-11-19T21:41:45.751Z,86.90
2022-11-19T21:44:16.767Z,87.20
2022-11-19T21:46:48.414Z,87.40
2022-11-19T21:49:15.303Z,87.40
2022-11-19T21:51:43.041Z,87.00
2022-11-19T21:54:10.191Z,87.90
2022-11-19T21:56:38.864Z,87.40
2022-11-19T21:59:06.979Z,86.90
2022-11-19T22:01:33.959Z,87.20
2022-11-19T22:04:00.798Z,87.30
2022-11-19T22:06:27.524Z,87.80
2022-11-19T22:08:54.330Z,87.60
2022-11-19T22:11:30.748Z,87.40
2022-11-19T22:13:59.629Z,87.20
2022-11-19T22:16:27.194Z,86.70
2022-11-19T22:18:54.023Z,86.80
2022-11-19T22:21:20.858Z,86.80
2022-11-19T22:23:47.638Z,86.30
2022-11-19T22:26:15.516Z,86.30
2022-11-19T22:28:42.320Z,86.60
2022-11-19T22:31:09.191Z,86.60
2022-11-19T22:33:37.848Z,86.70
2022-11-19T22:36:09.838Z,87.40
2022-11-19T22:38:37.675Z,87.00
2022-11-19T22:41:09.365Z,87.50
2022-11-19T22:43:36.799Z,87.00
2022-11-19T22:46:03.681Z,86.60
2022-11-19T22:48:31.158Z,86.80
2022-11-19T22:50:58.380Z,87.60
2022-11-19T22:53:25.163Z,87.30
2022-11-19T22:55:52.276Z,87.10
2022-11-19T22:58:19.031Z,87.20
2022-11-19T23:00:47.431Z,87.20
2022-11-19T23:03:14.681Z,87.40
2022-11-19T23:05:45.531Z,87.40
2022-11-19T23:08:12.557Z,87.50
2022-11-19T23:10:39.503Z,87.70
2022-11-19T23:13:25.511Z,87.60
2022-11-19T23:16:00.121Z,87.50
2022-11-19T23:18:27.651Z,87.60
2022-11-19T23:21:05.643Z,87.90
2022-11-19T23:23:32.942Z,87.30
2022-11-19T23:26:00.915Z,87.10
2022-11-19T23:28:29.090Z,86.50
2022-11-19T23:30:56.029Z,86.90
2022-11-19T23:33:23.197Z,87.30
2022-11-19T23:35:50.265Z,87.50
2022-11-19T23:38:17.289Z,87.60
2022-11-19T23:40:44.419Z,87.60
2022-11-19T23:43:12.883Z,87.70
2022-11-19T23:45:39.846Z,87.90
2022-11-19T23:48:06.728Z,87.90
2022-11-19T23:50:33.570Z,87.50
2022-11-19T23:53:00.393Z,87.80
2022-11-19T23:55:27.313Z,87.90
2022-11-19T23:57:54.243Z,87.50
